Portola Hills, California
Current Conditions -  °F | °C
As of 8:53 AM on Thursday 23 Oct 2014 (Local Time) from KSNA Reporting Station
Scattered Clouds Scattered Clouds  
Wind Chill: 70°   Ceiling: Unl
Heat Index: 70°   Visibility: 7mi
Dew Point: 57°   Wind: 0mph
Humidity: 63%   Direction: NA
Pressure: 29.99"   Gusts: NA
Location:  33.6153°N, 117.532°W
Report Text: KSNA 231553Z 00000KT 7SM FEW010 SCT300 21/14 A2999 RMK AO2 SLP152 T02110139
Loading
Personal Weather Stations






























Interactive Weather Map
Tropical Storm Tracking
New forecast layout! Learn more

10-Day Weather Forecast

Advertisements
Track Severe Weather on mobile